Time;durP1;ratioP1;P1;durP2;ratioP2;P2;SDS_P1;SDS_P2;PMS_P1;PMS_P2;Temp;Humidity;BMP_temperature;BMP_pressure;BME280_temperature;BME280_humidity;BME280_pressure;Samples;Min_cycle;Max_cycle;Signal;HPM_P1;HPM_P2
2021/10/26 00:00:25;;;;;;;14.18;8.15;;;8.60;93.20;;;;;;4959048;28;20034;-70
2021/10/26 00:02:53;;;;;;;14.27;8.55;;;8.80;93.10;;;;;;4954260;28;20023;-70
2021/10/26 00:05:18;;;;;;;15.30;9.15;;;8.90;93.20;;;;;;4951790;28;20081;-70
2021/10/26 00:07:44;;;;;;;15.50;8.93;;;9.00;92.70;;;;;;4950851;28;20035;-65
2021/10/26 00:10:12;;;;;;;15.50;8.80;;;9.10;92.40;;;;;;4962935;28;20102;-65
2021/10/26 00:12:38;;;;;;;13.30;7.80;;;9.20;91.80;;;;;;4948133;28;20090;-65
2021/10/26 00:15:05;;;;;;;16.58;8.15;;;9.20;91.60;;;;;;4947908;28;20058;-65
2021/10/26 00:17:30;;;;;;;10.77;7.57;;;9.30;91.50;;;;;;4947843;28;20032;-65
2021/10/26 00:19:57;;;;;;;13.82;8.30;;;9.40;91.40;;;;;;4955946;28;20090;-65
2021/10/26 00:22:22;;;;;;;11.57;7.68;;;9.40;91.00;;;;;;4953245;28;20940;-65
2021/10/26 00:24:48;;;;;;;11.38;7.30;;;9.50;90.90;;;;;;4958510;28;20039;-65
2021/10/26 00:27:14;;;;;;;14.85;8.00;;;9.60;90.90;;;;;;4957070;28;20943;-65
2021/10/26 00:29:39;;;;;;;11.73;7.63;;;9.60;90.70;;;;;;4952854;28;20085;-65
2021/10/26 00:32:05;;;;;;;13.93;7.95;;;9.60;90.60;;;;;;4953397;28;20042;-65
2021/10/26 00:34:31;;;;;;;14.73;8.68;;;9.60;90.50;;;;;;4966495;28;20535;-64
2021/10/26 00:36:58;;;;;;;13.85;8.07;;;9.60;90.60;;;;;;4949481;28;20031;-65
2021/10/26 00:39:24;;;;;;;14.70;8.68;;;9.60;90.50;;;;;;4975365;28;20046;-65
2021/10/26 00:41:50;;;;;;;12.38;8.45;;;9.60;90.40;;;;;;4964100;28;20100;-65
2021/10/26 00:44:16;;;;;;;14.55;8.57;;;9.50;90.40;;;;;;4963263;28;20177;-65
2021/10/26 00:46:42;;;;;;;13.98;8.45;;;9.50;90.50;;;;;;4962476;28;20672;-65
2021/10/26 00:49:11;;;;;;;15.60;8.48;;;9.40;90.70;;;;;;4975714;28;20093;-65
2021/10/26 00:51:39;;;;;;;14.75;8.23;;;9.40;90.80;;;;;;4974737;28;20034;-64
2021/10/26 00:54:06;;;;;;;11.90;7.70;;;9.40;90.70;;;;;;4957680;28;20035;-65
2021/10/26 00:56:34;;;;;;;13.38;7.40;;;9.40;90.80;;;;;;4954592;28;20497;-65
2021/10/26 00:59:01;;;;;;;10.73;7.47;;;9.40;90.80;;;;;;4952766;28;20042;-65
2021/10/26 01:01:28;;;;;;;12.77;7.65;;;9.40;90.90;;;;;;4961422;28;20027;-65
2021/10/26 01:03:54;;;;;;;12.75;7.97;;;9.40;91.00;;;;;;4961261;28;20039;-64
2021/10/26 01:06:20;;;;;;;12.20;7.30;;;9.40;91.00;;;;;;4975997;28;20042;-65
2021/10/26 01:08:49;;;;;;;12.18;7.43;;;9.40;91.00;;;;;;4978044;28;20807;-65
2021/10/26 01:11:15;;;;;;;13.52;7.40;;;9.40;91.10;;;;;;4963534;28;20046;-65
2021/10/26 01:13:45;;;;;;;9.82;6.22;;;9.40;91.00;;;;;;4979573;28;20101;-65
2021/10/26 01:16:11;;;;;;;13.70;7.93;;;9.50;91.00;;;;;;4974376;28;20815;-65
2021/10/26 01:18:37;;;;;;;10.35;6.65;;;9.40;91.00;;;;;;4963324;28;20035;-65
2021/10/26 01:21:03;;;;;;;12.70;7.43;;;9.40;91.00;;;;;;4963146;28;20030;-65
2021/10/26 01:23:31;;;;;;;9.50;7.15;;;9.40;91.00;;;;;;4966831;28;20070;-65
2021/10/26 01:25:57;;;;;;;9.60;6.22;;;9.40;90.90;;;;;;4953615;28;20285;-65
2021/10/26 01:28:23;;;;;;;9.98;6.47;;;9.40;91.00;;;;;;4969324;28;20672;-65
2021/10/26 01:30:51;;;;;;;11.63;6.68;;;9.40;90.90;;;;;;4961569;28;20414;-65
2021/10/26 01:33:43;;;;;;;14.30;7.38;;;9.40;90.90;;;;;;4949197;28;20100;-65
2021/10/26 01:36:20;;;;;;;12.75;8.02;;;9.40;90.90;;;;;;4971815;28;20527;-65
2021/10/26 01:38:46;;;;;;;12.32;7.90;;;9.40;90.90;;;;;;4943496;28;20031;-65
2021/10/26 01:41:13;;;;;;;11.65;7.18;;;9.30;90.80;;;;;;4965465;28;20093;-65
2021/10/26 01:43:39;;;;;;;11.23;7.50;;;9.20;91.00;;;;;;4960343;28;20031;-65
2021/10/26 01:46:05;;;;;;;10.13;6.28;;;9.10;91.10;;;;;;4960010;28;20034;-65
2021/10/26 01:48:35;;;;;;;10.38;6.85;;;8.90;91.30;;;;;;4943450;28;20039;-65
2021/10/26 01:51:03;;;;;;;11.25;6.75;;;8.90;91.50;;;;;;4959196;28;20039;-65
2021/10/26 01:53:29;;;;;;;12.18;7.10;;;8.70;91.70;;;;;;4968732;28;20407;-65
2021/10/26 01:55:55;;;;;;;10.60;6.50;;;8.70;91.90;;;;;;4960820;28;20034;-65
2021/10/26 01:58:23;;;;;;;12.10;6.43;;;8.60;92.10;;;;;;4964619;28;20039;-65
2021/10/26 02:01:11;;;;;;;12.65;8.25;;;8.60;92.20;;;;;;4968274;28;20027;-65
2021/10/26 02:03:37;;;;;;;12.48;6.80;;;8.60;92.30;;;;;;4961294;28;20894;-65
2021/10/26 02:06:04;;;;;;;10.80;6.65;;;8.70;92.40;;;;;;4959782;28;20039;-65
2021/10/26 02:08:30;;;;;;;9.80;6.50;;;8.80;92.40;;;;;;4957221;28;20795;-65
2021/10/26 02:10:56;;;;;;;9.75;7.07;;;8.90;92.40;;;;;;4971018;28;20513;-65
2021/10/26 02:13:22;;;;;;;8.60;5.70;;;8.80;92.30;;;;;;4974237;28;20213;-65
2021/10/26 02:15:49;;;;;;;10.00;6.68;;;8.90;92.30;;;;;;4958752;28;20704;-65
2021/10/26 02:18:14;;;;;;;9.55;7.00;;;8.80;92.30;;;;;;4956409;28;20039;-65
2021/10/26 02:20:41;;;;;;;12.18;6.75;;;8.80;92.30;;;;;;4958266;28;20031;-65
2021/10/26 02:23:09;;;;;;;9.75;6.60;;;8.80;92.20;;;;;;4957957;28;20834;-65
2021/10/26 02:25:34;;;;;;;10.77;6.40;;;8.70;92.20;;;;;;4959266;28;20027;-65
2021/10/26 02:28:00;;;;;;;9.82;6.57;;;8.60;92.20;;;;;;4963698;28;20570;-65
2021/10/26 02:30:26;;;;;;;12.30;6.35;;;8.60;92.40;;;;;;4956977;28;20042;-64
2021/10/26 02:32:53;;;;;;;11.02;6.38;;;8.60;92.30;;;;;;4958753;28;20061;-64
2021/10/26 02:35:19;;;;;;;10.80;6.47;;;8.60;92.30;;;;;;4957354;28;20118;-64
2021/10/26 02:37:45;;;;;;;11.40;6.57;;;8.50;92.40;;;;;;4957529;28;20035;-65
2021/10/26 02:40:11;;;;;;;11.65;7.13;;;8.50;92.50;;;;;;4956519;28;20771;-64
2021/10/26 02:42:37;;;;;;;10.65;6.28;;;8.50;92.50;;;;;;4969215;28;20491;-64
2021/10/26 02:45:04;;;;;;;11.05;6.15;;;8.50;92.50;;;;;;4957295;28;20045;-65
2021/10/26 02:47:30;;;;;;;14.65;7.10;;;8.50;92.60;;;;;;4968446;28;20055;-64
2021/10/26 02:49:56;;;;;;;11.93;7.10;;;8.60;92.60;;;;;;4968171;28;20277;-64
2021/10/26 02:52:22;;;;;;;11.45;6.82;;;8.70;92.70;;;;;;4967164;28;20035;-65
2021/10/26 02:54:48;;;;;;;10.23;6.55;;;8.80;92.40;;;;;;4950111;28;20444;-65
2021/10/26 02:57:14;;;;;;;12.52;6.93;;;8.90;92.20;;;;;;4954748;28;20089;-66
2021/10/26 02:59:40;;;;;;;9.85;6.28;;;9.00;91.90;;;;;;4970252;28;20038;-66
2021/10/26 03:02:06;;;;;;;11.48;6.70;;;9.10;91.60;;;;;;4957607;28;20203;-65
2021/10/26 03:04:32;;;;;;;13.77;6.35;;;9.20;91.50;;;;;;4959878;28;20045;-66
2021/10/26 03:06:57;;;;;;;9.40;6.38;;;9.30;90.90;;;;;;4970044;28;20031;-65
2021/10/26 03:09:24;;;;;;;7.95;6.03;;;9.30;91.00;;;;;;4958935;28;20105;-66
2021/10/26 03:11:50;;;;;;;9.00;5.57;;;9.30;90.60;;;;;;4970353;28;20039;-66
2021/10/26 03:14:17;;;;;;;10.30;5.85;;;9.40;90.70;;;;;;4971980;28;20034;-70
2021/10/26 03:16:43;;;;;;;9.48;6.03;;;9.40;90.70;;;;;;4958468;28;20047;-66
2021/10/26 03:19:10;;;;;;;12.25;6.18;;;9.50;90.80;;;;;;4953189;28;20035;-66
2021/10/26 03:21:39;;;;;;;11.27;6.40;;;9.50;90.80;;;;;;4956861;28;20031;-66
2021/10/26 03:24:05;;;;;;;7.72;5.22;;;9.60;90.70;;;;;;4958933;28;20027;-66
2021/10/26 03:26:33;;;;;;;10.43;5.90;;;9.60;90.70;;;;;;4965071;28;20034;-66
2021/10/26 03:28:59;;;;;;;10.13;5.22;;;9.60;90.70;;;;;;4961621;28;20075;-66
2021/10/26 03:31:25;;;;;;;9.52;6.00;;;9.60;90.70;;;;;;4967162;28;20039;-66
2021/10/26 03:34:11;;;;;;;8.27;5.47;;;9.70;90.70;;;;;;4958390;28;20149;-66
2021/10/26 03:36:37;;;;;;;8.52;5.28;;;9.70;90.70;;;;;;4959417;28;20037;-66
2021/10/26 03:39:03;;;;;;;7.47;5.28;;;9.70;90.70;;;;;;4959281;28;20031;-66
2021/10/26 03:41:29;;;;;;;7.38;5.30;;;9.80;90.70;;;;;;4958427;28;20034;-66
2021/10/26 03:43:55;;;;;;;9.55;5.75;;;9.70;90.70;;;;;;4956166;28;20030;-66
2021/10/26 03:46:20;;;;;;;7.35;5.22;;;9.80;90.60;;;;;;4957646;28;20762;-66
2021/10/26 03:48:47;;;;;;;8.38;5.82;;;9.80;90.70;;;;;;4957768;28;20027;-66
2021/10/26 03:51:13;;;;;;;10.50;6.18;;;9.80;90.60;;;;;;4957491;28;20066;-65
2021/10/26 03:53:39;;;;;;;9.13;5.20;;;9.80;90.30;;;;;;4950398;28;20030;-66
2021/10/26 03:56:05;;;;;;;7.20;5.18;;;9.90;90.10;;;;;;4956319;28;20566;-66
2021/10/26 03:58:34;;;;;;;7.22;5.20;;;9.90;90.20;;;;;;4955530;28;20130;-66
2021/10/26 04:01:11;;;;;;;7.60;4.82;;;9.90;90.30;;;;;;4957410;28;20035;-65
2021/10/26 04:03:36;;;;;;;8.10;5.05;;;9.90;90.40;;;;;;4969728;28;20035;-65
2021/10/26 04:06:05;;;;;;;8.60;5.72;;;9.90;90.50;;;;;;4975156;28;20580;-66
2021/10/26 04:08:49;;;;;;;10.02;6.15;;;10.00;90.10;;;;;;4958841;28;20903;-66
2021/10/26 04:11:20;;;;;;;7.75;5.10;;;9.90;90.20;;;;;;4958264;28;20045;-66
2021/10/26 04:13:47;;;;;;;9.07;5.70;;;10.00;90.20;;;;;;4957842;28;20038;-66
2021/10/26 04:16:12;;;;;;;7.82;5.40;;;10.00;90.40;;;;;;4958014;28;20034;-66
2021/10/26 04:18:39;;;;;;;8.13;5.22;;;10.00;90.40;;;;;;4967160;28;20039;-66
2021/10/26 04:21:06;;;;;;;8.45;5.10;;;10.10;90.50;;;;;;4958323;28;20179;-66
2021/10/26 04:23:40;;;;;;;6.67;4.90;;;10.10;90.40;;;;;;4950889;28;20442;-65
2021/10/26 04:26:07;;;;;;;8.30;5.20;;;10.10;90.40;;;;;;4968070;28;20295;-66
2021/10/26 04:28:34;;;;;;;8.25;5.35;;;10.10;90.40;;;;;;4968587;28;20035;-66
2021/10/26 04:31:05;;;;;;;9.70;5.60;;;10.10;90.50;;;;;;4971392;28;20031;-66
2021/10/26 04:33:33;;;;;;;8.18;5.53;;;10.20;90.50;;;;;;4958118;28;20039;-66
2021/10/26 04:35:59;;;;;;;7.68;5.22;;;10.20;90.50;;;;;;4972589;28;20035;-66
2021/10/26 04:38:25;;;;;;;6.75;4.78;;;10.20;90.60;;;;;;4959106;28;20089;-66
2021/10/26 04:40:57;;;;;;;8.55;5.53;;;10.20;90.60;;;;;;4961041;28;20059;-65
2021/10/26 04:43:25;;;;;;;9.75;5.82;;;10.20;90.60;;;;;;4958931;28;20054;-66
2021/10/26 04:45:52;;;;;;;7.43;5.22;;;10.20;90.60;;;;;;4964267;28;20038;-66
2021/10/26 04:48:19;;;;;;;8.20;5.22;;;10.20;90.70;;;;;;4951508;28;20070;-66
2021/10/26 04:50:46;;;;;;;10.13;5.45;;;10.10;90.60;;;;;;4969878;28;20498;-65
2021/10/26 04:53:12;;;;;;;8.82;5.40;;;10.10;90.70;;;;;;4961099;28;20046;-66
2021/10/26 04:55:42;;;;;;;10.15;6.18;;;10.10;90.70;;;;;;4972100;28;20487;-66
2021/10/26 04:58:08;;;;;;;9.98;5.55;;;10.20;90.80;;;;;;4972024;28;20097;-66
2021/10/26 05:00:46;;;;;;;9.77;5.63;;;10.20;90.70;;;;;;4975443;28;20743;-65
2021/10/26 05:03:12;;;;;;;10.40;5.72;;;10.20;90.80;;;;;;4958193;28;20166;-66
2021/10/26 05:05:39;;;;;;;9.18;6.07;;;10.20;90.80;;;;;;4951312;28;20400;-66
2021/10/26 05:08:05;;;;;;;8.30;5.10;;;10.20;90.80;;;;;;4959129;28;20035;-66
2021/10/26 05:10:32;;;;;;;6.82;4.63;;;10.20;90.70;;;;;;4960494;28;20488;-66
2021/10/26 05:12:58;;;;;;;6.82;5.10;;;10.20;90.70;;;;;;4976201;28;20046;-66
2021/10/26 05:15:43;;;;;;;7.97;5.75;;;10.20;90.60;;;;;;4957397;28;20035;-66
2021/10/26 05:18:51;;;;;;;7.90;5.13;;;10.20;90.70;;;;;;4956960;28;20057;-65
2021/10/26 05:21:35;;;;;;;8.10;4.90;;;10.20;90.80;;;;;;4958449;28;20713;-66
2021/10/26 05:24:23;;;;;;;10.32;5.43;;;10.30;90.80;;;;;;4958944;28;20117;-66
2021/10/26 05:26:58;;;;;;;8.80;5.75;;;10.30;90.80;;;;;;4971756;28;20037;-65
2021/10/26 05:29:24;;;;;;;10.90;5.70;;;10.40;90.80;;;;;;4959488;28;20042;-66
2021/10/26 05:31:49;;;;;;;9.13;5.57;;;10.40;90.90;;;;;;4960664;28;20046;-66
2021/10/26 05:34:15;;;;;;;8.32;5.38;;;10.40;90.90;;;;;;4959746;28;20034;-66
2021/10/26 05:36:41;;;;;;;10.10;6.20;;;10.50;90.90;;;;;;4959894;28;20039;-66
2021/10/26 05:39:08;;;;;;;7.35;5.20;;;10.50;90.80;;;;;;4972377;28;20061;-66
2021/10/26 05:41:35;;;;;;;6.68;4.90;;;10.50;90.60;;;;;;4959096;28;20038;-66
2021/10/26 05:44:03;;;;;;;7.85;5.53;;;10.50;90.60;;;;;;4949538;28;20038;-66
2021/10/26 05:46:30;;;;;;;8.38;5.32;;;10.60;90.70;;;;;;4967652;28;20035;-66
2021/10/26 05:48:56;;;;;;;10.85;6.18;;;10.60;90.70;;;;;;4959803;28;20090;-66
2021/10/26 05:51:23;;;;;;;9.70;5.40;;;10.60;90.80;;;;;;4954516;28;20050;-66
2021/10/26 05:53:49;;;;;;;7.70;5.00;;;10.60;90.80;;;;;;4956064;28;20062;-66
2021/10/26 05:56:15;;;;;;;10.05;5.10;;;10.70;90.80;;;;;;4956646;28;20038;-66
2021/10/26 05:58:41;;;;;;;8.82;5.82;;;10.70;90.80;;;;;;4957939;28;20039;-65
2021/10/26 06:01:06;;;;;;;8.88;5.55;;;10.70;90.80;;;;;;4945631;28;20039;-65
2021/10/26 06:03:33;;;;;;;8.95;5.57;;;10.80;90.70;;;;;;4973373;28;20035;-65
2021/10/26 06:05:59;;;;;;;9.90;5.63;;;10.80;90.60;;;;;;4959062;28;20146;-66
2021/10/26 06:08:25;;;;;;;10.65;5.63;;;10.80;90.60;;;;;;4954278;28;20034;-66
2021/10/26 06:10:56;;;;;;;9.20;5.55;;;10.90;90.60;;;;;;4963479;28;20050;-65
2021/10/26 06:13:28;;;;;;;8.77;5.78;;;10.90;90.60;;;;;;4949762;28;20424;-65
2021/10/26 06:15:54;;;;;;;10.57;5.88;;;11.00;90.60;;;;;;4958432;28;20503;-65
2021/10/26 06:18:19;;;;;;;8.85;6.00;;;11.00;90.50;;;;;;4959395;28;20046;-65
2021/10/26 06:20:47;;;;;;;10.35;6.07;;;11.10;90.10;;;;;;4973418;28;20042;-65
2021/10/26 06:23:13;;;;;;;9.23;6.03;;;11.10;90.10;;;;;;4969998;28;20038;-65
2021/10/26 06:25:39;;;;;;;8.73;5.45;;;11.20;90.10;;;;;;4958564;28;20030;-65
2021/10/26 06:28:24;;;;;;;7.72;5.97;;;11.20;90.10;;;;;;4970851;28;20856;-65
2021/10/26 06:30:49;;;;;;;9.70;6.35;;;11.30;90.00;;;;;;4972723;28;20045;-65
2021/10/26 06:33:19;;;;;;;8.38;5.90;;;11.30;90.10;;;;;;4968645;28;20035;-65
2021/10/26 06:35:46;;;;;;;7.45;5.63;;;11.40;90.10;;;;;;4958648;28;20074;-65
2021/10/26 06:38:16;;;;;;;9.85;6.20;;;11.40;90.10;;;;;;4958964;28;20039;-65
2021/10/26 06:40:42;;;;;;;9.27;6.13;;;11.40;90.10;;;;;;4965638;28;20032;-64
2021/10/26 06:43:32;;;;;;;9.80;6.35;;;11.50;90.10;;;;;;4949637;28;20097;-63
2021/10/26 06:46:16;;;;;;;8.90;5.80;;;11.50;90.10;;;;;;4953202;28;20054;-67
2021/10/26 06:49:00;;;;;;;10.80;6.28;;;11.50;90.00;;;;;;4956275;28;20049;-66
2021/10/26 06:51:45;;;;;;;13.00;6.65;;;11.60;89.90;;;;;;4954872;28;20078;-66
2021/10/26 06:54:30;;;;;;;13.15;6.97;;;11.60;89.80;;;;;;4955940;28;20093;-65
2021/10/26 06:57:16;;;;;;;11.27;6.03;;;11.70;89.90;;;;;;4946339;28;20101;-66
2021/10/26 07:00:01;;;;;;;11.95;7.10;;;11.70;89.80;;;;;;4954883;28;20093;-65
2021/10/26 07:02:54;;;;;;;14.00;7.20;;;11.80;89.90;;;;;;4961173;28;20053;-63
2021/10/26 07:05:45;;;;;;;10.68;6.53;;;11.90;89.50;;;;;;4958318;28;20644;-66
2021/10/26 07:08:38;;;;;;;17.58;7.60;;;12.00;87.50;;;;;;4957382;28;20157;-66
2021/10/26 07:11:23;;;;;;;16.92;8.35;;;12.00;87.30;;;;;;4955139;28;20843;-65
2021/10/26 07:13:49;;;;;;;15.13;8.98;;;12.10;87.10;;;;;;4959436;28;20077;-66
2021/10/26 07:16:15;;;;;;;17.15;8.43;;;12.10;86.70;;;;;;4969121;28;20093;-66
2021/10/26 07:18:42;;;;;;;17.88;8.95;;;12.20;86.90;;;;;;4965487;28;20492;-65
2021/10/26 07:21:07;;;;;;;17.30;8.30;;;12.30;85.60;;;;;;4956627;28;20037;-66
2021/10/26 07:24:03;;;;;;;14.60;7.85;;;12.30;85.70;;;;;;4954554;28;20203;-65
2021/10/26 07:26:55;;;;;;;11.88;6.65;;;12.40;86.10;;;;;;4955721;28;20074;-67
2021/10/26 07:29:21;;;;;;;13.43;7.78;;;12.40;85.20;;;;;;4957543;28;20062;-67
2021/10/26 07:31:47;;;;;;;20.85;8.82;;;12.50;85.40;;;;;;4959330;28;20523;-65
2021/10/26 07:34:15;;;;;;;14.35;8.10;;;12.60;84.60;;;;;;4969395;28;20039;-65
2021/10/26 07:36:45;;;;;;;15.07;8.80;;;12.80;84.20;;;;;;4952781;28;20570;-64
2021/10/26 07:39:46;;;;;;;14.02;7.97;;;12.80;83.80;;;;;;4971218;28;20746;-66
2021/10/26 07:42:04;;;;;;;11.07;7.32;;;12.80;83.90;;;;;;4967509;28;20790;-66
2021/10/26 07:44:59;;;;;;;11.10;7.70;;;12.80;84.20;;;;;;4967967;28;20062;-66
2021/10/26 07:47:26;;;;;;;11.43;7.88;;;12.80;84.60;;;;;;4969267;28;20031;-66
2021/10/26 07:49:55;;;;;;;19.75;9.25;;;12.80;84.40;;;;;;4971600;28;20554;-66
2021/10/26 07:52:24;;;;;;;13.75;9.02;;;12.60;84.60;;;;;;4959846;28;20077;-65
2021/10/26 07:55:00;;;;;;;;;;;12.50;85.00;;;;;;4972063;28;20039;-65
2021/10/26 07:57:27;;;;;;;11.73;7.07;;;12.50;85.70;;;;;;4973187;28;19918;-63
2021/10/26 07:59:55;;;;;;;16.15;9.55;;;12.70;86.50;;;;;;4975558;28;20035;-65
2021/10/26 08:02:22;;;;;;;14.70;8.70;;;12.90;85.20;;;;;;4955393;28;20026;-65
2021/10/26 08:05:08;;;;;;;17.17;10.05;;;13.00;84.60;;;;;;4946319;28;20070;-63
2021/10/26 08:07:35;;;;;;;14.30;8.57;;;13.00;84.40;;;;;;4968037;28;20125;-65
2021/10/26 08:10:00;;;;;;;17.25;9.27;;;13.10;84.60;;;;;;4960592;28;20094;-66
2021/10/26 08:12:28;;;;;;;20.08;11.30;;;13.10;84.60;;;;;;4972240;28;20507;-66
2021/10/26 08:14:55;;;;;;;14.60;9.02;;;13.20;84.60;;;;;;4971533;28;20039;-65
2021/10/26 08:17:21;;;;;;;17.98;9.57;;;13.20;84.80;;;;;;4972094;28;20046;-65
2021/10/26 08:19:49;;;;;;;17.75;9.80;;;13.20;84.70;;;;;;4973408;28;20065;-65
2021/10/26 08:22:18;;;;;;;17.58;10.32;;;13.20;84.50;;;;;;4960943;28;20038;-65
2021/10/26 08:24:51;;;;;;;18.92;9.77;;;13.20;84.80;;;;;;4973888;28;20726;-65
2021/10/26 08:27:19;;;;;;;19.63;9.40;;;13.10;84.20;;;;;;4964000;28;20697;-66
2021/10/26 08:30:11;;;;;;;16.73;10.48;;;13.10;85.10;;;;;;4962811;28;20090;-65
2021/10/26 08:32:46;;;;;;;15.25;8.15;;;13.10;85.50;;;;;;4962250;28;20112;-65
2021/10/26 08:37:46;;;;;;;16.42;9.75;;;13.10;85.30;;;;;;4963118;28;20134;-64
2021/10/26 08:40:13;;;;;;;15.85;9.40;;;13.20;85.40;;;;;;4980864;28;20027;-65
2021/10/26 08:42:42;;;;;;;15.75;10.00;;;13.20;85.20;;;;;;4974985;28;20061;-65
2021/10/26 08:45:08;;;;;;;18.25;10.60;;;13.20;85.00;;;;;;4954600;28;20054;-65
2021/10/26 08:47:38;;;;;;;19.27;10.82;;;13.30;84.60;;;;;;4969595;28;20035;-64
2021/10/26 08:50:24;;;;;;;15.75;10.02;;;13.50;84.60;;;;;;4955933;28;20046;-65
2021/10/26 08:52:50;;;;;;;17.67;10.15;;;13.60;84.20;;;;;;4976334;28;20496;-65
2021/10/26 08:55:43;;;;;;;23.88;10.93;;;13.60;84.00;;;;;;4957938;28;20101;-67
2021/10/26 08:58:29;;;;;;;14.65;9.55;;;13.70;83.20;;;;;;4961055;28;20097;-64
2021/10/26 09:01:03;;;;;;;16.40;9.88;;;13.70;84.20;;;;;;4980351;28;20045;-65
2021/10/26 09:03:34;;;;;;;15.32;9.35;;;13.80;83.90;;;;;;4974736;28;20418;-64
2021/10/26 09:06:01;;;;;;;15.20;9.25;;;14.00;83.20;;;;;;4953021;28;20031;-64
2021/10/26 09:08:28;;;;;;;15.90;9.30;;;14.20;82.40;;;;;;4967383;28;20062;-65
2021/10/26 09:11:14;;;;;;;16.33;9.70;;;14.30;82.80;;;;;;4971496;28;20101;-65
2021/10/26 09:17:03;;;;;;;16.02;9.40;;;14.30;81.80;;;;;;4956733;28;20049;-65
2021/10/26 09:19:47;;;;;;;18.73;9.52;;;14.40;81.60;;;;;;4971480;28;20053;-65
2021/10/26 09:22:24;;;;;;;14.30;9.07;;;14.40;80.90;;;;;;4961062;28;20038;-65
2021/10/26 09:25:06;;;;;;;15.10;8.75;;;14.40;81.40;;;;;;4974145;28;20221;-65
2021/10/26 09:27:32;;;;;;;20.95;10.48;;;14.50;80.60;;;;;;4956638;28;20484;-65
2021/10/26 09:30:07;;;;;;;17.58;8.93;;;14.60;80.40;;;;;;4943254;28;20039;-65
2021/10/26 09:32:39;;;;;;;16.87;8.47;;;14.60;80.00;;;;;;4947418;28;20043;-65
2021/10/26 09:35:07;;;;;;;18.90;9.82;;;14.60;80.40;;;;;;4955105;28;21006;-65
2021/10/26 09:37:42;;;;;;;17.67;8.73;;;14.70;80.00;;;;;;4954806;28;20027;-65
2021/10/26 09:40:09;;;;;;;12.35;7.85;;;14.80;80.00;;;;;;4966711;28;20058;-65
2021/10/26 09:42:39;;;;;;;15.52;8.30;;;15.00;80.00;;;;;;4953443;28;20054;-65
2021/10/26 09:45:06;;;;;;;13.90;7.90;;;15.10;78.70;;;;;;4951382;28;20043;-65
2021/10/26 09:47:38;;;;;;;15.93;7.55;;;15.10;77.90;;;;;;4971886;28;20049;-65
2021/10/26 09:50:07;;;;;;;12.00;7.68;;;15.10;77.60;;;;;;4955833;28;20046;-65
2021/10/26 09:52:40;;;;;;;11.15;8.18;;;15.00;78.20;;;;;;4958752;28;20031;-65
2021/10/26 09:55:14;;;;;;;13.43;7.53;;;14.90;78.50;;;;;;4951089;28;20140;-66
2021/10/26 09:57:50;;;;;;;16.35;8.00;;;14.80;79.40;;;;;;4949237;28;20039;-65
2021/10/26 10:00:24;;;;;;;14.27;7.88;;;14.90;79.80;;;;;;4949697;28;20031;-65
2021/10/26 10:03:23;;;;;;;13.90;8.35;;;15.00;78.40;;;;;;4950050;28;20026;-65
2021/10/26 10:05:57;;;;;;;18.75;8.32;;;14.90;78.50;;;;;;4956012;28;20050;-65
2021/10/26 10:08:35;;;;;;;20.52;9.27;;;14.90;78.80;;;;;;4950816;28;20035;-66
2021/10/26 10:11:14;;;;;;;15.90;9.35;;;14.70;79.30;;;;;;4959150;28;20043;-65
2021/10/26 10:13:47;;;;;;;16.73;8.82;;;14.70;80.00;;;;;;4959101;28;20031;-65
2021/10/26 10:16:17;;;;;;;14.82;8.30;;;14.70;80.50;;;;;;4951611;28;20078;-65
2021/10/26 10:18:44;;;;;;;15.38;8.73;;;14.60;80.60;;;;;;4952933;28;20047;-65
2021/10/26 10:21:13;;;;;;;15.98;8.75;;;14.50;80.80;;;;;;4948174;28;20036;-66
2021/10/26 10:23:44;;;;;;;37.80;14.45;;;14.70;81.00;;;;;;4944954;28;20035;-66
2021/10/26 10:26:28;;;;;;;22.70;9.98;;;14.90;80.00;;;;;;4968286;28;20128;-65
2021/10/26 10:28:55;;;;;;;28.45;11.75;;;15.00;79.30;;;;;;4957300;28;20109;-65
2021/10/26 10:31:25;;;;;;;21.80;10.82;;;15.20;79.50;;;;;;4950189;28;20036;-65
2021/10/26 10:33:58;;;;;;;17.65;9.65;;;15.30;78.30;;;;;;4951024;28;20043;-66
2021/10/26 10:36:25;;;;;;;15.73;8.75;;;15.50;77.90;;;;;;4952326;28;20042;-66
2021/10/26 10:38:54;;;;;;;19.10;9.35;;;15.90;77.20;;;;;;4952316;28;20142;-66
2021/10/26 10:41:32;;;;;;;21.83;11.00;;;16.00;75.90;;;;;;4957662;28;20031;-63
2021/10/26 10:44:05;;;;;;;16.13;9.32;;;16.10;75.90;;;;;;4958295;28;20043;-66
2021/10/26 10:46:52;;;;;;;16.67;9.10;;;16.30;75.80;;;;;;4957915;28;20042;-66
2021/10/26 10:49:24;;;;;;;17.35;8.73;;;16.70;74.40;;;;;;4952942;28;20046;-65
2021/10/26 10:51:58;;;;;;;14.27;7.53;;;17.00;72.20;;;;;;4946766;28;20136;-67
2021/10/26 10:54:38;;;;;;;12.02;7.90;;;17.00;71.70;;;;;;4944234;28;20035;-66
2021/10/26 10:57:35;;;;;;;18.13;7.75;;;16.90;72.80;;;;;;4944700;28;20042;-65
2021/10/26 11:00:21;;;;;;;15.43;8.27;;;16.90;72.90;;;;;;4957315;28;20070;-65
2021/10/26 11:02:52;;;;;;;14.73;8.13;;;17.10;74.20;;;;;;4952098;28;20047;-65
2021/10/26 11:05:33;;;;;;;14.07;6.85;;;17.20;72.60;;;;;;4954798;28;20034;-65
2021/10/26 11:08:10;;;;;;;11.85;6.80;;;17.20;71.00;;;;;;4952530;28;20042;-66
2021/10/26 11:10:54;;;;;;;16.38;8.88;;;17.30;71.20;;;;;;4948584;28;20039;-66
2021/10/26 11:13:31;;;;;;;48.78;21.90;;;17.20;70.80;;;;;;4950963;28;20125;-69
2021/10/26 11:16:05;;;;;;;24.15;13.73;;;17.10;71.50;;;;;;4950603;28;20494;-67
2021/10/26 11:18:41;;;;;;;19.38;11.32;;;17.20;70.80;;;;;;4942211;28;20055;-68
2021/10/26 11:21:10;;;;;;;16.05;7.88;;;17.50;71.00;;;;;;4951378;28;20133;-70
2021/10/26 11:23:44;;;;;;;13.63;7.80;;;17.60;69.50;;;;;;4951141;28;20066;-69
2021/10/26 11:26:15;;;;;;;11.10;6.43;;;17.30;69.20;;;;;;4974156;28;20039;-70
2021/10/26 11:28:50;;;;;;;11.50;7.40;;;17.40;70.50;;;;;;4954315;28;20039;-69
2021/10/26 11:31:23;;;;;;;11.80;7.22;;;17.50;69.80;;;;;;4950601;28;20666;-68
2021/10/26 11:33:56;;;;;;;14.77;6.85;;;17.50;69.80;;;;;;4970288;28;20034;-68
2021/10/26 11:36:30;;;;;;;12.90;8.48;;;17.70;69.40;;;;;;4966081;28;20122;-68
2021/10/26 11:38:57;;;;;;;20.00;8.02;;;17.80;68.80;;;;;;4951939;28;20046;-68
2021/10/26 11:41:28;;;;;;;15.27;7.72;;;17.80;68.80;;;;;;4952286;28;20151;-69
2021/10/26 11:44:03;;;;;;;14.55;8.50;;;17.80;68.90;;;;;;4949024;28;20053;-68
2021/10/26 11:46:37;;;;;;;15.07;8.55;;;17.60;67.70;;;;;;4947691;28;20043;-68
2021/10/26 11:49:18;;;;;;;13.85;8.55;;;17.20;69.50;;;;;;4971768;28;20035;-68
2021/10/26 11:51:49;;;;;;;16.45;11.85;;;16.70;70.80;;;;;;4959423;28;20070;-68
2021/10/26 11:54:18;;;;;;;13.10;8.23;;;16.40;71.40;;;;;;4956604;28;20125;-68
2021/10/26 11:56:48;;;;;;;11.30;9.07;;;16.30;72.30;;;;;;4960598;28;20051;-69
2021/10/26 11:59:40;;;;;;;15.10;9.40;;;16.40;72.70;;;;;;4968960;28;20104;-68
2021/10/26 12:02:39;;;;;;;11.60;8.02;;;16.60;72.60;;;;;;4954837;28;20117;-68
2021/10/26 12:05:05;;;;;;;11.95;8.02;;;16.80;72.20;;;;;;4955624;28;20057;-68
2021/10/26 12:07:31;;;;;;;11.18;6.68;;;17.00;71.50;;;;;;4952155;28;20054;-68
2021/10/26 12:09:59;;;;;;;17.42;12.00;;;17.30;71.10;;;;;;4958573;28;20027;-68
2021/10/26 12:12:30;;;;;;;14.15;10.18;;;17.40;69.70;;;;;;4952416;28;20030;-67
2021/10/26 12:15:09;;;;;;;16.27;9.40;;;17.40;69.60;;;;;;4967240;28;20058;-68
2021/10/26 12:17:37;;;;;;;14.65;10.13;;;17.30;70.00;;;;;;4967579;28;20039;-68
2021/10/26 12:20:10;;;;;;;13.07;8.82;;;17.00;71.10;;;;;;4948580;28;20035;-68
2021/10/26 12:22:41;;;;;;;12.82;8.77;;;17.00;71.70;;;;;;4960928;28;20487;-67
2021/10/26 12:25:15;;;;;;;14.27;8.43;;;17.10;71.60;;;;;;4972793;28;20058;-71
2021/10/26 12:27:47;;;;;;;12.67;8.70;;;17.00;71.00;;;;;;4958232;28;20054;-71
2021/10/26 12:30:32;;;;;;;12.45;7.50;;;17.10;70.70;;;;;;4945075;28;20050;-71
2021/10/26 12:33:06;;;;;;;11.25;6.68;;;17.00;69.70;;;;;;4970017;28;20046;-70
2021/10/26 12:35:55;;;;;;;11.25;6.97;;;16.80;70.40;;;;;;4967553;28;20039;-71
2021/10/26 12:38:37;;;;;;;9.93;6.55;;;16.80;71.30;;;;;;4967072;28;20043;-71
2021/10/26 12:41:17;;;;;;;12.52;7.18;;;16.90;71.60;;;;;;4966214;28;20067;-72
2021/10/26 12:44:03;;;;;;;10.55;6.68;;;17.20;71.00;;;;;;4963301;28;20035;-71
2021/10/26 12:46:29;;;;;;;9.98;6.85;;;17.40;69.90;;;;;;4957691;28;20038;-71
2021/10/26 12:49:13;;;;;;;10.65;6.55;;;17.60;69.40;;;;;;4943754;28;20038;-71
2021/10/26 12:51:40;;;;;;;10.65;6.70;;;17.40;68.40;;;;;;4958675;28;20069;-70
2021/10/26 12:54:15;;;;;;;9.25;6.15;;;17.20;69.00;;;;;;4964268;28;20038;-71
2021/10/26 12:56:51;;;;;;;8.13;5.87;;;17.20;70.10;;;;;;4976156;28;20501;-71
2021/10/26 12:59:18;;;;;;;9.40;6.60;;;17.10;68.90;;;;;;4961879;28;20285;-71
2021/10/26 13:01:49;;;;;;;9.93;6.22;;;16.80;71.60;;;;;;4958589;28;20058;-70
2021/10/26 13:04:23;;;;;;;10.88;5.57;;;16.60;74.90;;;;;;4958981;28;20045;-71
2021/10/26 13:06:57;;;;;;;9.18;5.35;;;16.40;78.80;;;;;;4969746;28;20035;-71
2021/10/26 13:09:41;;;;;;;9.20;6.05;;;16.20;81.50;;;;;;4955296;28;20039;-72